createdAt,value
2018-02-01T00:00:36.274Z,944.37
2018-02-01T00:01:36.292Z,944.36
2018-02-01T00:02:36.309Z,944.36
2018-02-01T00:03:36.326Z,944.44
2018-02-01T00:04:36.345Z,944.35
2018-02-01T00:05:36.362Z,944.32
2018-02-01T00:06:36.380Z,944.36
2018-02-01T00:07:36.397Z,944.33
2018-02-01T00:08:36.416Z,944.35
2018-02-01T00:09:36.433Z,944.31
2018-02-01T00:10:36.451Z,944.3
2018-02-01T00:11:36.469Z,944.32
2018-02-01T00:12:36.485Z,944.25
2018-02-01T00:13:36.504Z,944.26
2018-02-01T00:14:36.522Z,944.27
2018-02-01T00:15:36.557Z,944.23
2018-02-01T00:16:36.558Z,944.23
2018-02-01T00:17:36.575Z,944.2
2018-02-01T00:18:36.592Z,944.22
2018-02-01T00:19:36.610Z,944.15
2018-02-01T00:20:36.627Z,944.2
2018-02-01T00:21:36.644Z,944.15
2018-02-01T00:22:36.663Z,944.13
2018-02-01T00:23:36.680Z,944.1
2018-02-01T00:24:36.697Z,944.16
2018-02-01T00:25:36.715Z,944.14
2018-02-01T00:26:36.733Z,944.11
2018-02-01T00:27:36.751Z,944.05
2018-02-01T00:28:36.768Z,944.02
2018-02-01T00:29:36.786Z,944
2018-02-01T00:30:36.804Z,943.99
2018-02-01T00:31:36.821Z,943.98
2018-02-01T00:32:36.838Z,943.92
2018-02-01T00:33:36.857Z,943.97
2018-02-01T00:34:36.874Z,944.02
2018-02-01T00:35:36.892Z,944.02
2018-02-01T00:36:36.909Z,944.02
2018-02-01T00:37:36.927Z,944.01
2018-02-01T00:38:36.944Z,943.89
2018-02-01T00:39:36.961Z,943.93
2018-02-01T00:40:36.980Z,943.94
2018-02-01T00:41:36.998Z,943.88
2018-02-01T00:42:37.014Z,943.78
2018-02-01T00:43:37.031Z,943.8
2018-02-01T00:44:37.051Z,943.83
2018-02-01T00:45:37.068Z,943.86
2018-02-01T00:46:37.083Z,943.85
2018-02-01T00:47:37.102Z,943.83
2018-02-01T00:48:37.121Z,943.76
2018-02-01T00:49:37.138Z,943.87
2018-02-01T00:50:37.154Z,943.83
2018-02-01T00:51:37.173Z,943.75
2018-02-01T00:52:37.192Z,943.73
2018-02-01T00:53:37.207Z,943.77
2018-02-01T00:54:37.226Z,943.78
2018-02-01T00:55:37.243Z,943.79
2018-02-01T00:56:37.259Z,943.77
2018-02-01T00:57:37.276Z,943.75
2018-02-01T00:58:37.295Z,943.8
2018-02-01T00:59:37.312Z,943.81
2018-02-01T01:00:37.330Z,943.8
2018-02-01T01:01:37.346Z,943.71
2018-02-01T01:02:37.363Z,943.71
2018-02-01T01:03:37.383Z,943.74
2018-02-01T01:04:37.400Z,943.81
2018-02-01T01:05:37.418Z,943.76
2018-02-01T01:06:37.438Z,943.8
2018-02-01T01:07:37.452Z,943.67
2018-02-01T01:08:37.470Z,943.64
2018-02-01T01:09:37.487Z,943.79
2018-02-01T01:10:37.504Z,943.53
2018-02-01T01:11:37.521Z,943.56
2018-02-01T01:12:37.539Z,943.67
2018-02-01T01:13:37.558Z,943.6
2018-02-01T01:14:37.575Z,943.66
2018-02-01T01:15:37.593Z,943.57
2018-02-01T01:16:37.607Z,943.61
2018-02-01T01:17:37.627Z,943.65
2018-02-01T01:18:37.644Z,943.6
2018-02-01T01:19:37.660Z,943.47
2018-02-01T01:20:37.677Z,943.46
2018-02-01T01:21:37.698Z,943.54
2018-02-01T01:22:37.715Z,943.6
2018-02-01T01:23:37.730Z,943.44
2018-02-01T01:24:37.746Z,943.53
2018-02-01T01:25:37.765Z,943.47
2018-02-01T01:26:37.780Z,943.52
2018-02-01T01:27:37.799Z,943.47
2018-02-01T01:28:37.815Z,943.49
2018-02-01T01:29:37.844Z,943.35
2018-02-01T01:30:37.849Z,943.38
2018-02-01T01:31:37.867Z,943.37
2018-02-01T01:32:37.884Z,943.4
2018-02-01T01:33:37.901Z,943.34
2018-02-01T01:34:37.918Z,943.37
2018-02-01T01:35:37.936Z,943.39
2018-02-01T01:36:37.952Z,943.38
2018-02-01T01:37:37.970Z,943.4
2018-02-01T01:38:37.987Z,943.47
2018-02-01T01:39:38.003Z,943.37
2018-02-01T01:40:38.024Z,943.39
2018-02-01T01:41:38.036Z,943.37
2018-02-01T01:42:38.054Z,943.38
2018-02-01T01:43:38.072Z,943.39
2018-02-01T01:44:38.113Z,943.34
2018-02-01T01:45:38.110Z,943.33
2018-02-01T01:46:38.124Z,943.31
2018-02-01T01:47:38.141Z,943.19
2018-02-01T01:48:38.158Z,943.25
2018-02-01T01:49:38.224Z,943.25
2018-02-01T01:50:38.190Z,943.21
2018-02-01T01:51:38.209Z,943.2
2018-02-01T01:52:38.226Z,943.2
2018-02-01T01:53:38.243Z,943.21
2018-02-01T01:54:38.259Z,943.18
2018-02-01T01:55:38.275Z,943.19
2018-02-01T01:56:38.293Z,943.27
2018-02-01T01:57:38.310Z,943.25
2018-02-01T01:58:38.328Z,943.17
2018-02-01T01:59:38.343Z,943.19
2018-02-01T02:00:38.361Z,943.23
2018-02-01T02:01:38.378Z,943.17
2018-02-01T02:02:38.394Z,943.15
2018-02-01T02:03:38.411Z,943.14
2018-02-01T02:04:38.478Z,943.18
2018-02-01T02:05:38.445Z,943.14
2018-02-01T02:06:38.462Z,943.15
2018-02-01T02:07:38.479Z,943.17
2018-02-01T02:08:38.498Z,943.13
2018-02-01T02:09:38.513Z,943.14
2018-02-01T02:10:38.530Z,943.11
2018-02-01T02:11:38.547Z,943.13
2018-02-01T02:12:38.564Z,943.09
2018-02-01T02:13:38.586Z,943.09
2018-02-01T02:14:38.599Z,943.13
2018-02-01T02:15:38.616Z,943.04
2018-02-01T02:16:38.632Z,943.06
2018-02-01T02:17:38.648Z,943.02
2018-02-01T02:18:38.667Z,943.05
2018-02-01T02:19:38.685Z,943.04
2018-02-01T02:20:38.751Z,943.04
2018-02-01T02:21:38.718Z,943.08
2018-02-01T02:22:38.735Z,943.01
2018-02-01T02:23:38.751Z,943.03
2018-02-01T02:24:38.773Z,943.03
2018-02-01T02:25:38.785Z,943.04
2018-02-01T02:26:38.803Z,943.05
2018-02-01T02:27:38.821Z,943.03
2018-02-01T02:28:38.837Z,943
2018-02-01T02:29:38.852Z,943.01
2018-02-01T02:30:38.870Z,942.92
2018-02-01T02:31:38.888Z,943
2018-02-01T02:32:38.905Z,942.9
2018-02-01T02:33:38.921Z,942.9
2018-02-01T02:34:38.938Z,942.92
2018-02-01T02:35:39.006Z,942.9
2018-02-01T02:36:38.972Z,942.91
2018-02-01T02:37:38.990Z,942.95
2018-02-01T02:38:39.006Z,942.96
2018-02-01T02:39:39.023Z,942.92
2018-02-01T02:40:39.040Z,942.97
2018-02-01T02:41:39.057Z,942.96
2018-02-01T02:42:39.074Z,942.82
2018-02-01T02:43:39.102Z,942.95
2018-02-01T02:44:39.107Z,942.95
2018-02-01T02:45:39.124Z,942.94
2018-02-01T02:46:39.141Z,942.93
2018-02-01T02:47:39.158Z,942.89
2018-02-01T02:48:39.174Z,942.92
2018-02-01T02:49:39.192Z,942.92
2018-02-01T02:50:39.259Z,942.92
2018-02-01T02:51:39.226Z,942.91
2018-02-01T02:52:39.243Z,942.89
2018-02-01T02:53:39.261Z,942.81
2018-02-01T02:54:39.275Z,942.92
2018-02-01T02:55:39.294Z,942.94
2018-02-01T02:56:39.311Z,942.99
2018-02-01T02:57:39.326Z,942.97
2018-02-01T02:58:39.343Z,943.08
2018-02-01T02:59:39.360Z,942.9
2018-02-01T03:00:39.378Z,942.93
2018-02-01T03:01:39.395Z,942.97
2018-02-01T03:02:39.412Z,942.91
2018-02-01T03:03:39.428Z,942.95
2018-02-01T03:04:39.445Z,942.94
2018-02-01T03:05:39.511Z,942.96
2018-02-01T03:06:39.480Z,942.94
2018-02-01T03:07:39.498Z,943.05
2018-02-01T03:08:39.513Z,942.99
2018-02-01T03:09:39.529Z,942.99
2018-02-01T03:10:39.596Z,943.04
2018-02-01T03:11:39.562Z,942.99
2018-02-01T03:12:39.580Z,942.94
2018-02-01T03:13:39.596Z,942.93
2018-02-01T03:14:39.613Z,942.93
2018-02-01T03:15:39.631Z,943
2018-02-01T03:16:39.646Z,942.96
2018-02-01T03:17:39.663Z,943.05
2018-02-01T03:18:39.680Z,942.97
2018-02-01T03:19:39.697Z,942.98
2018-02-01T03:20:39.767Z,943.01
2018-02-01T03:21:39.732Z,942.9
2018-02-01T03:22:39.748Z,942.99
2018-02-01T03:23:39.763Z,943.02
2018-02-01T03:24:39.780Z,943.15
2018-02-01T03:25:39.798Z,942.9
2018-02-01T03:26:39.815Z,942.95
2018-02-01T03:27:39.830Z,942.83
2018-02-01T03:28:39.849Z,942.81
2018-02-01T03:29:39.865Z,942.88
2018-02-01T03:30:39.880Z,942.86
2018-02-01T03:31:39.898Z,942.87
2018-02-01T03:32:39.913Z,942.83
2018-02-01T03:33:39.931Z,942.77
2018-02-01T03:34:39.948Z,942.8
2018-02-01T03:35:39.964Z,942.81
2018-02-01T03:36:40.030Z,942.83
2018-02-01T03:37:39.996Z,942.83
2018-02-01T03:38:40.013Z,942.86
2018-02-01T03:39:40.029Z,942.87
2018-02-01T03:40:40.046Z,942.78
2018-02-01T03:41:40.062Z,942.83
2018-02-01T03:42:40.082Z,942.86
2018-02-01T03:43:40.096Z,942.77
2018-02-01T03:44:40.112Z,942.85
2018-02-01T03:45:40.129Z,942.85
2018-02-01T03:46:40.145Z,942.76
2018-02-01T03:47:40.161Z,943
2018-02-01T03:48:40.179Z,942.84
2018-02-01T03:49:40.194Z,942.78
2018-02-01T03:50:40.211Z,942.87
2018-02-01T03:51:40.278Z,942.86
2018-02-01T03:52:40.245Z,942.81
2018-02-01T03:53:40.262Z,942.88
2018-02-01T03:54:40.278Z,942.95
2018-02-01T03:55:40.294Z,942.78
2018-02-01T03:56:40.361Z,942.88
2018-02-01T03:57:40.329Z,942.81
2018-02-01T03:58:40.344Z,942.85
2018-02-01T03:59:40.372Z,942.82
2018-02-01T04:00:40.376Z,942.98
2018-02-01T04:01:40.407Z,942.87
2018-02-01T04:02:40.411Z,942.88
2018-02-01T04:03:40.424Z,942.96
2018-02-01T04:04:40.449Z,942.9
2018-02-01T04:05:40.459Z,942.98
2018-02-01T04:06:40.524Z,942.83
2018-02-01T04:07:40.491Z,942.96
2018-02-01T04:08:40.507Z,942.96
2018-02-01T04:09:40.525Z,942.93
2018-02-01T04:10:40.541Z,942.81
2018-02-01T04:11:40.557Z,942.89
2018-02-01T04:12:40.572Z,942.99
2018-02-01T04:13:40.591Z,942.97
2018-02-01T04:14:40.605Z,942.87
2018-02-01T04:15:40.622Z,942.85
2018-02-01T04:16:40.638Z,942.91
2018-02-01T04:17:40.655Z,942.95
2018-02-01T04:18:40.669Z,942.82
2018-02-01T04:19:40.686Z,942.84
2018-02-01T04:20:40.702Z,942.7
2018-02-01T04:21:40.768Z,942.64
2018-02-01T04:22:40.737Z,942.69
2018-02-01T04:23:40.752Z,942.56
2018-02-01T04:24:40.768Z,942.67
2018-02-01T04:25:40.784Z,942.76
2018-02-01T04:26:40.800Z,942.67
2018-02-01T04:27:40.817Z,942.63
2018-02-01T04:28:40.833Z,942.62
2018-02-01T04:29:40.848Z,942.67
2018-02-01T04:30:40.865Z,942.66
2018-02-01T04:31:40.882Z,942.67
2018-02-01T04:32:40.900Z,942.66
2018-02-01T04:33:40.912Z,942.66
2018-02-01T04:34:40.930Z,942.65
2018-02-01T04:35:40.945Z,942.62
2018-02-01T04:36:40.960Z,942.62
2018-02-01T04:37:41.028Z,942.64
2018-02-01T04:38:40.992Z,942.64
2018-02-01T04:39:41.011Z,942.63
2018-02-01T04:40:41.031Z,942.7
2018-02-01T04:41:41.042Z,942.64
2018-02-01T04:42:41.059Z,942.76
2018-02-01T04:43:41.075Z,942.65
2018-02-01T04:44:41.090Z,942.72
2018-02-01T04:45:41.106Z,942.69
2018-02-01T04:46:41.122Z,942.63
2018-02-01T04:47:41.188Z,942.71
2018-02-01T04:48:41.154Z,942.79
2018-02-01T04:49:41.169Z,942.67
2018-02-01T04:50:41.186Z,942.77
2018-02-01T04:51:41.201Z,942.84
2018-02-01T04:52:41.268Z,942.81
2018-02-01T04:53:41.234Z,942.89
2018-02-01T04:54:41.249Z,942.8
2018-02-01T04:55:41.266Z,942.77
2018-02-01T04:56:41.286Z,942.73
2018-02-01T04:57:41.302Z,942.74
2018-02-01T04:58:41.318Z,942.73
2018-02-01T04:59:41.330Z,942.76
2018-02-01T05:00:41.347Z,942.69
2018-02-01T05:01:41.363Z,942.72
2018-02-01T05:02:41.378Z,942.64
2018-02-01T05:03:41.395Z,942.68
2018-02-01T05:04:41.412Z,942.69
2018-02-01T05:05:41.426Z,942.64
2018-02-01T05:06:41.443Z,942.67
2018-02-01T05:07:41.509Z,942.6
2018-02-01T05:08:41.474Z,942.67
2018-02-01T05:09:41.490Z,942.63
2018-02-01T05:10:41.506Z,942.69
2018-02-01T05:11:41.524Z,942.59
2018-02-01T05:12:41.538Z,942.58
2018-02-01T05:13:41.595Z,942.62
2018-02-01T05:14:41.571Z,942.63
2018-02-01T05:15:41.588Z,942.61
2018-02-01T05:16:41.604Z,942.51
2018-02-01T05:17:41.620Z,942.58
2018-02-01T05:18:41.634Z,942.62
2018-02-01T05:19:41.652Z,942.55
2018-02-01T05:20:41.666Z,942.6
2018-02-01T05:21:41.682Z,942.57
2018-02-01T05:22:41.749Z,942.65
2018-02-01T05:23:41.715Z,942.6
2018-02-01T05:24:41.730Z,942.61
2018-02-01T05:25:41.747Z,942.62
2018-02-01T05:26:41.762Z,942.66
2018-02-01T05:27:41.777Z,942.59
2018-02-01T05:28:41.800Z,942.63
2018-02-01T05:29:41.810Z,942.66
2018-02-01T05:30:41.826Z,942.68
2018-02-01T05:31:41.842Z,942.61
2018-02-01T05:32:41.858Z,942.64
2018-02-01T05:33:41.876Z,942.64
2018-02-01T05:34:41.890Z,942.64
2018-02-01T05:35:41.929Z,942.59
2018-02-01T05:36:41.921Z,942.61
2018-02-01T05:37:41.988Z,942.6
2018-02-01T05:38:41.954Z,942.65
2018-02-01T05:39:41.969Z,942.66
2018-02-01T05:40:41.985Z,942.68
2018-02-01T05:41:42.002Z,942.7
2018-02-01T05:42:42.017Z,942.61
2018-02-01T05:43:42.031Z,942.61
2018-02-01T05:44:42.048Z,942.63
2018-02-01T05:45:42.063Z,942.59
2018-02-01T05:46:42.078Z,942.65
2018-02-01T05:47:42.145Z,942.71
2018-02-01T05:48:42.109Z,942.72
2018-02-01T05:49:42.125Z,942.72
2018-02-01T05:50:42.140Z,942.72
2018-02-01T05:51:42.155Z,942.76
2018-02-01T05:52:42.222Z,942.65
2018-02-01T05:53:42.186Z,942.72
2018-02-01T05:54:42.202Z,942.72
2018-02-01T05:55:42.218Z,942.68
2018-02-01T05:56:42.232Z,942.73
2018-02-01T05:57:42.247Z,942.72
2018-02-01T05:58:42.263Z,942.68
2018-02-01T05:59:42.280Z,942.7
2018-02-01T06:00:42.294Z,942.64
2018-02-01T06:01:42.310Z,942.69
2018-02-01T06:02:42.327Z,942.75
2018-02-01T06:03:42.340Z,942.71
2018-02-01T06:04:42.353Z,942.67
2018-02-01T06:05:42.369Z,942.68
2018-02-01T06:06:42.385Z,942.74
2018-02-01T06:07:42.551Z,942.68
2018-02-01T06:08:42.414Z,942.69
2018-02-01T06:09:42.431Z,942.7
2018-02-01T06:10:42.446Z,942.73
2018-02-01T06:11:42.462Z,942.71
2018-02-01T06:12:42.525Z,942.75
2018-02-01T06:13:42.491Z,942.77
2018-02-01T06:14:42.506Z,942.7
2018-02-01T06:15:42.520Z,942.7
2018-02-01T06:16:42.540Z,942.72
2018-02-01T06:17:42.551Z,942.7
2018-02-01T06:18:42.568Z,942.74
2018-02-01T06:19:42.579Z,942.71
2018-02-01T06:20:42.594Z,942.81
2018-02-01T06:21:42.610Z,942.78
2018-02-01T06:22:42.675Z,942.78
2018-02-01T06:23:42.639Z,942.76
2018-02-01T06:24:42.655Z,942.76
2018-02-01T06:25:42.670Z,942.75
2018-02-01T06:26:42.683Z,942.75
2018-02-01T06:27:42.700Z,942.78
2018-02-01T06:28:42.713Z,942.74
2018-02-01T06:29:42.730Z,942.76
2018-02-01T06:30:42.745Z,942.73
2018-02-01T06:31:42.760Z,942.74
2018-02-01T06:32:42.775Z,942.79
2018-02-01T06:33:42.790Z,942.81
2018-02-01T06:34:42.804Z,942.76
2018-02-01T06:35:42.820Z,942.84
2018-02-01T06:36:42.835Z,942.71
2018-02-01T06:37:42.848Z,942.71
2018-02-01T06:38:42.863Z,942.72
2018-02-01T06:39:43.043Z,942.71
2018-02-01T06:40:42.891Z,942.71
2018-02-01T06:41:42.907Z,942.72
2018-02-01T06:42:42.923Z,942.73
2018-02-01T06:43:42.940Z,942.77
2018-02-01T06:44:42.951Z,942.74
2018-02-01T06:45:42.967Z,942.69
2018-02-01T06:46:42.981Z,942.73
2018-02-01T06:47:42.996Z,942.74
2018-02-01T06:48:43.011Z,942.71
2018-02-01T06:49:43.027Z,942.74
2018-02-01T06:50:43.042Z,942.67
2018-02-01T06:51:43.055Z,942.69
2018-02-01T06:52:43.071Z,942.71
2018-02-01T06:53:43.085Z,942.65
2018-02-01T06:54:43.100Z,942.71
2018-02-01T06:55:43.115Z,942.77
2018-02-01T06:56:43.130Z,942.8
2018-02-01T06:57:43.146Z,942.75
2018-02-01T06:58:43.160Z,942.76
2018-02-01T06:59:43.175Z,942.74
2018-02-01T07:00:43.190Z,942.71
2018-02-01T07:01:43.206Z,942.73
2018-02-01T07:02:43.218Z,942.81
2018-02-01T07:03:43.234Z,942.75
2018-02-01T07:04:43.248Z,942.74
2018-02-01T07:05:43.265Z,942.75
2018-02-01T07:06:43.279Z,942.82
2018-02-01T07:07:43.306Z,942.74
2018-02-01T07:08:43.309Z,942.77
2018-02-01T07:09:43.324Z,942.76
2018-02-01T07:10:43.337Z,942.78
2018-02-01T07:11:43.390Z,942.81
2018-02-01T07:12:43.368Z,942.81
2018-02-01T07:13:43.387Z,942.8
2018-02-01T07:14:43.396Z,942.79
2018-02-01T07:15:43.422Z,942.77
2018-02-01T07:16:43.427Z,942.79
2018-02-01T07:17:43.440Z,942.72
2018-02-01T07:18:43.456Z,942.73
2018-02-01T07:19:43.471Z,942.77
2018-02-01T07:20:43.490Z,942.74
2018-02-01T07:21:43.501Z,942.79
2018-02-01T07:22:43.516Z,942.8
2018-02-01T07:23:43.532Z,942.76
2018-02-01T07:24:43.546Z,942.81
2018-02-01T07:25:43.561Z,942.76
2018-02-01T07:26:43.575Z,942.8
2018-02-01T07:27:43.590Z,942.84
2018-02-01T07:28:43.605Z,942.83
2018-02-01T07:29:43.619Z,942.8
2018-02-01T07:30:43.636Z,942.78
2018-02-01T07:31:43.649Z,942.79
2018-02-01T07:32:43.664Z,942.8
2018-02-01T07:33:43.678Z,942.8
2018-02-01T07:34:43.693Z,942.89
2018-02-01T07:35:43.710Z,942.82
2018-02-01T07:36:43.724Z,942.8
2018-02-01T07:37:43.736Z,942.82
2018-02-01T07:38:43.752Z,942.79
2018-02-01T07:39:43.766Z,942.79
2018-02-01T07:40:43.831Z,942.8
2018-02-01T07:41:43.796Z,942.78
2018-02-01T07:42:43.810Z,942.81
2018-02-01T07:43:43.823Z,942.8
2018-02-01T07:44:43.838Z,942.79
2018-02-01T07:45:43.954Z,942.82
2018-02-01T07:46:43.868Z,942.81
2018-02-01T07:47:43.883Z,942.84
2018-02-01T07:48:43.898Z,942.81
2018-02-01T07:49:43.913Z,942.81
2018-02-01T07:50:43.925Z,942.83
2018-02-01T07:51:43.941Z,942.86
2018-02-01T07:52:43.956Z,942.87
2018-02-01T07:53:43.970Z,942.8
2018-02-01T07:54:43.984Z,942.92
2018-02-01T07:55:44.048Z,942.84
2018-02-01T07:56:44.014Z,942.88
2018-02-01T07:57:44.028Z,942.85
2018-02-01T07:58:44.045Z,942.88
2018-02-01T07:59:44.057Z,942.83
2018-02-01T08:00:44.074Z,942.84
2018-02-01T08:01:44.085Z,942.76
2018-02-01T08:02:44.101Z,942.81
2018-02-01T08:03:44.114Z,942.81
2018-02-01T08:04:44.129Z,942.77
2018-02-01T08:05:44.194Z,942.76
2018-02-01T08:06:44.160Z,942.78
2018-02-01T08:07:44.173Z,942.74
2018-02-01T08:08:44.187Z,942.75
2018-02-01T08:09:44.203Z,942.74
2018-02-01T08:10:44.268Z,942.73
2018-02-01T08:11:44.233Z,942.75
2018-02-01T08:12:44.246Z,942.79
2018-02-01T08:13:44.261Z,942.79
2018-02-01T08:14:44.277Z,942.8
2018-02-01T08:15:44.291Z,942.77
2018-02-01T08:16:44.305Z,942.76
2018-02-01T08:17:44.320Z,942.74
2018-02-01T08:18:44.334Z,942.71
2018-02-01T08:19:44.353Z,942.76
2018-02-01T08:20:44.364Z,942.72
2018-02-01T08:21:44.378Z,942.7
2018-02-01T08:22:44.393Z,942.72
2018-02-01T08:23:44.408Z,942.68
2018-02-01T08:24:44.421Z,942.69
2018-02-01T08:25:44.487Z,942.65
2018-02-01T08:26:44.454Z,942.67
2018-02-01T08:27:44.467Z,942.67
2018-02-01T08:28:44.480Z,942.69
2018-02-01T08:29:44.497Z,942.73
2018-02-01T08:30:44.563Z,942.66
2018-02-01T08:31:44.527Z,942.75
2018-02-01T08:32:44.539Z,942.69
2018-02-01T08:33:44.556Z,942.68
2018-02-01T08:34:44.575Z,942.67
2018-02-01T08:35:44.638Z,942.69
2018-02-01T08:36:44.598Z,942.7
2018-02-01T08:37:44.612Z,942.71
2018-02-01T08:38:44.627Z,942.73
2018-02-01T08:39:44.641Z,942.69
2018-02-01T08:40:44.705Z,942.74
2018-02-01T08:41:44.668Z,942.76
2018-02-01T08:42:44.684Z,942.7
2018-02-01T08:43:44.698Z,942.73
2018-02-01T08:44:44.713Z,942.65
2018-02-01T08:45:44.777Z,942.69
2018-02-01T08:46:44.742Z,942.68
2018-02-01T08:47:44.760Z,942.72
2018-02-01T08:48:44.771Z,942.65
2018-02-01T08:49:44.786Z,942.72
2018-02-01T08:50:44.799Z,942.65
2018-02-01T08:51:44.815Z,942.7
2018-02-01T08:52:44.828Z,942.68
2018-02-01T08:53:44.843Z,942.72
2018-02-01T08:54:44.859Z,942.7
2018-02-01T08:55:44.923Z,942.72
2018-02-01T08:56:44.908Z,942.74
2018-02-01T08:57:44.901Z,942.74
2018-02-01T08:58:44.916Z,942.76
2018-02-01T08:59:44.936Z,942.73
2018-02-01T09:00:44.943Z,942.81
2018-02-01T09:01:44.958Z,942.74
2018-02-01T09:02:44.979Z,942.79
2018-02-01T09:03:44.990Z,942.7
2018-02-01T09:04:45.008Z,942.81
2018-02-01T09:05:45.015Z,942.74
2018-02-01T09:06:45.031Z,942.75
2018-02-01T09:07:45.043Z,942.8
2018-02-01T09:08:45.058Z,942.77
2018-02-01T09:09:45.072Z,942.79
2018-02-01T09:10:45.391Z,942.78
2018-02-01T09:11:45.100Z,942.82
2018-02-01T09:12:45.115Z,942.77
2018-02-01T09:13:45.130Z,942.8
2018-02-01T09:14:45.143Z,942.78
2018-02-01T09:15:45.157Z,942.83
2018-02-01T09:16:45.172Z,942.82
2018-02-01T09:17:45.189Z,942.84
2018-02-01T09:18:45.203Z,942.87
2018-02-01T09:19:45.244Z,942.84
2018-02-01T09:20:45.229Z,942.8
2018-02-01T09:21:45.296Z,942.83
2018-02-01T09:22:45.257Z,942.82
2018-02-01T09:23:45.271Z,942.84
2018-02-01T09:24:45.288Z,942.87
2018-02-01T09:25:45.298Z,942.84
2018-02-01T09:26:45.612Z,942.87
2018-02-01T09:27:45.327Z,942.85
2018-02-01T09:28:45.341Z,942.85
2018-02-01T09:29:45.355Z,942.91
2018-02-01T09:30:45.368Z,942.87
2018-02-01T09:31:45.383Z,942.92
2018-02-01T09:32:45.397Z,943.02
2018-02-01T09:33:45.411Z,942.96
2018-02-01T09:34:45.423Z,943
2018-02-01T09:35:45.437Z,942.94
2018-02-01T09:36:45.450Z,942.98
2018-02-01T09:37:45.465Z,943.05
2018-02-01T09:38:45.479Z,943.04
2018-02-01T09:39:45.491Z,943.11
2018-02-01T09:40:45.505Z,942.97
2018-02-01T09:41:45.570Z,943.16
2018-02-01T09:42:45.535Z,943.03
2018-02-01T09:43:45.549Z,943.11
2018-02-01T09:44:45.558Z,943.07
2018-02-01T09:45:45.577Z,943.03
2018-02-01T09:46:45.588Z,943.24
2018-02-01T09:47:45.600Z,943.09
2018-02-01T09:48:45.615Z,943.16
2018-02-01T09:49:45.629Z,943.14
2018-02-01T09:50:45.642Z,943.23
2018-02-01T09:51:45.657Z,943.03
2018-02-01T09:52:45.670Z,943.2
2018-02-01T09:53:45.686Z,943.24
2018-02-01T09:54:45.697Z,943.21
2018-02-01T09:55:45.712Z,943.21
2018-02-01T09:56:45.774Z,943.24
2018-02-01T09:57:45.739Z,943.25
2018-02-01T09:58:45.754Z,943.33
2018-02-01T09:59:45.765Z,943.3
2018-02-01T10:00:45.779Z,943.28
2018-02-01T10:01:45.808Z,943.3
2018-02-01T10:02:45.806Z,943.35
2018-02-01T10:03:45.819Z,943.34
2018-02-01T10:04:45.883Z,943.36
2018-02-01T10:05:45.846Z,943.44
2018-02-01T10:06:45.859Z,943.36
2018-02-01T10:07:45.872Z,943.45
2018-02-01T10:08:45.888Z,943.38
2018-02-01T10:09:45.900Z,943.5
2018-02-01T10:10:45.914Z,943.5
2018-02-01T10:11:45.928Z,943.54
2018-02-01T10:12:45.940Z,943.54
2018-02-01T10:13:45.953Z,943.55
2018-02-01T10:14:46.017Z,943.57
2018-02-01T10:15:45.982Z,943.68
2018-02-01T10:16:45.993Z,943.62
2018-02-01T10:17:46.008Z,943.67
2018-02-01T10:18:46.022Z,943.72
2018-02-01T10:19:46.036Z,943.62
2018-02-01T10:20:46.048Z,943.68
2018-02-01T10:21:46.062Z,943.7
2018-02-01T10:22:46.076Z,943.74
2018-02-01T10:23:46.089Z,943.75
2018-02-01T10:24:46.104Z,943.77
2018-02-01T10:25:46.116Z,943.78
2018-02-01T10:26:46.130Z,943.82
2018-02-01T10:27:46.144Z,943.93
2018-02-01T10:28:46.158Z,943.94
2018-02-01T10:29:46.221Z,944
2018-02-01T10:30:46.185Z,944
2018-02-01T10:31:46.198Z,944.03
2018-02-01T10:32:46.213Z,944.08
2018-02-01T10:33:46.226Z,944.05
2018-02-01T10:34:46.291Z,944.07
2018-02-01T10:35:46.255Z,944.08
2018-02-01T10:36:46.267Z,944.04
2018-02-01T10:37:46.290Z,944.03
2018-02-01T10:38:46.295Z,943.98
2018-02-01T10:39:46.359Z,944
2018-02-01T10:40:46.323Z,944.01
2018-02-01T10:41:46.335Z,944.02
2018-02-01T10:42:46.348Z,944.02
2018-02-01T10:43:46.361Z,944.04
2018-02-01T10:44:46.426Z,944.03
2018-02-01T10:45:46.388Z,944
2018-02-01T10:46:46.403Z,944.03
2018-02-01T10:47:46.417Z,943.97
2018-02-01T10:48:46.430Z,944
2018-02-01T10:49:46.446Z,944.01
2018-02-01T10:50:46.458Z,944.04
2018-02-01T10:51:46.471Z,944.06
2018-02-01T10:52:46.485Z,944.07
2018-02-01T10:53:46.498Z,944.08
2018-02-01T10:54:46.512Z,944.07
2018-02-01T10:55:46.531Z,944.07
2018-02-01T10:56:46.538Z,944.04
2018-02-01T10:57:46.553Z,944.05
2018-02-01T10:58:46.567Z,944.05
2018-02-01T10:59:46.644Z,944.08
2018-02-01T11:00:46.594Z,944.11
2018-02-01T11:01:46.608Z,944.11
2018-02-01T11:02:46.623Z,944.07
2018-02-01T11:03:46.637Z,944.1
2018-02-01T11:04:46.650Z,944.09
2018-02-01T11:05:46.664Z,944.09
2018-02-01T11:06:46.678Z,944.04
2018-02-01T11:07:46.693Z,944.07
2018-02-01T11:08:46.705Z,944.06
2018-02-01T11:09:46.770Z,944.05
2018-02-01T11:10:46.734Z,944.02
2018-02-01T11:11:46.748Z,943.98
2018-02-01T11:12:46.763Z,943.99
2018-02-01T11:13:46.781Z,944.01
2018-02-01T11:14:46.839Z,944.01
2018-02-01T11:15:46.804Z,944.03
2018-02-01T11:16:46.818Z,943.98
2018-02-01T11:17:46.832Z,943.99
2018-02-01T11:18:46.845Z,943.98
2018-02-01T11:19:46.960Z,944.01
2018-02-01T11:20:46.873Z,943.99
2018-02-01T11:21:46.887Z,944
2018-02-01T11:22:46.900Z,943.99
2018-02-01T11:23:46.916Z,944
2018-02-01T11:24:46.931Z,944
2018-02-01T11:25:46.943Z,943.98
2018-02-01T11:26:46.957Z,944.03
2018-02-01T11:27:46.977Z,944.03
2018-02-01T11:28:46.984Z,944.05
2018-02-01T11:29:47.049Z,944.03
2018-02-01T11:30:47.014Z,944.05
2018-02-01T11:31:47.026Z,944.01
2018-02-01T11:32:47.043Z,944
2018-02-01T11:33:47.054Z,944
2018-02-01T11:34:47.069Z,943.96
2018-02-01T11:35:47.082Z,943.93
2018-02-01T11:36:47.104Z,943.94
2018-02-01T11:37:47.111Z,944
2018-02-01T11:38:47.124Z,944.02
2018-02-01T11:39:47.140Z,944.01
2018-02-01T11:40:47.153Z,944.03
2018-02-01T11:41:47.168Z,943.99
2018-02-01T11:42:47.193Z,943.99
2018-02-01T11:43:47.196Z,944.03
2018-02-01T11:44:47.450Z,944.02
2018-02-01T11:45:47.224Z,944.02
2018-02-01T11:46:47.239Z,944.01
2018-02-01T11:47:47.252Z,944.01
2018-02-01T11:48:47.266Z,944.05
2018-02-01T11:49:47.280Z,944
2018-02-01T11:50:47.294Z,944
2018-02-01T11:51:47.307Z,943.97
2018-02-01T11:52:47.322Z,944.02
2018-02-01T11:53:47.336Z,944
2018-02-01T11:54:47.349Z,944.04
2018-02-01T11:55:47.367Z,944.02
2018-02-01T11:56:47.377Z,944.02
2018-02-01T11:57:47.397Z,944.01
2018-02-01T11:58:47.405Z,944.02
2018-02-01T11:59:47.419Z,944.01
2018-02-01T12:00:47.433Z,944.01
2018-02-01T12:01:47.449Z,944.02
2018-02-01T12:02:47.464Z,944.04
2018-02-01T12:03:47.475Z,944.1
2018-02-01T12:04:47.489Z,944.09
2018-02-01T12:05:47.504Z,944.15
2018-02-01T12:06:47.518Z,944.14
2018-02-01T12:07:47.531Z,944.12
2018-02-01T12:08:47.578Z,944.14
2018-02-01T12:09:47.581Z,944.15
2018-02-01T12:10:47.574Z,944.1
2018-02-01T12:11:47.609Z,944.19
2018-02-01T12:12:47.602Z,944.15
2018-02-01T12:13:47.615Z,944.21
2018-02-01T12:14:47.628Z,944.15
2018-02-01T12:15:47.643Z,944.19
2018-02-01T12:16:47.656Z,944.19
2018-02-01T12:17:47.670Z,944.17
2018-02-01T12:18:47.689Z,944.15
2018-02-01T12:19:47.697Z,944.17
2018-02-01T12:20:47.710Z,944.19
2018-02-01T12:21:47.724Z,944.23
2018-02-01T12:22:47.738Z,944.17
2018-02-01T12:23:47.753Z,944.2
2018-02-01T12:24:47.765Z,944.19
2018-02-01T12:25:47.779Z,944.12
2018-02-01T12:26:47.792Z,944.12
2018-02-01T12:27:47.808Z,944.14
2018-02-01T12:28:47.820Z,944.14
2018-02-01T12:29:47.834Z,944.14
2018-02-01T12:30:47.849Z,944.11
2018-02-01T12:31:47.861Z,944.06
2018-02-01T12:32:47.876Z,944.07